sensor_id;sensor_type;location;lat;lon;timestamp;temperature;humidity
18898;DHT22;9581;49.484;8.556;2022-12-08T00:00:45;5.00;99.90
18898;DHT22;9581;49.484;8.556;2022-12-08T00:03:12;5.00;99.90
18898;DHT22;9581;49.484;8.556;2022-12-08T00:05:43;5.00;99.90
18898;DHT22;9581;49.484;8.556;2022-12-08T00:08:29;4.90;99.90
18898;DHT22;9581;49.484;8.556;2022-12-08T00:11:13;5.00;99.90
18898;DHT22;9581;49.484;8.556;2022-12-08T00:13:40;4.90;99.90
18898;DHT22;9581;49.484;8.556;2022-12-08T00:16:07;4.90;99.90
18898;DHT22;9581;49.484;8.556;2022-12-08T00:18:34;4.90;99.90
18898;DHT22;9581;49.484;8.556;2022-12-08T00:21:01;5.00;99.90
18898;DHT22;9581;49.484;8.556;2022-12-08T00:23:30;4.90;99.90
18898;DHT22;9581;49.484;8.556;2022-12-08T00:26:01;4.90;99.90
18898;DHT22;9581;49.484;8.556;2022-12-08T00:28:28;4.80;99.90
18898;DHT22;9581;49.484;8.556;2022-12-08T00:30:55;4.90;99.90
18898;DHT22;9581;49.484;8.556;2022-12-08T00:33:22;4.90;99.90
18898;DHT22;9581;49.484;8.556;2022-12-08T00:35:49;4.90;99.90
18898;DHT22;9581;49.484;8.556;2022-12-08T00:38:16;4.90;99.90
18898;DHT22;9581;49.484;8.556;2022-12-08T00:40:44;5.00;99.90
18898;DHT22;9581;49.484;8.556;2022-12-08T00:43:11;4.90;99.90
18898;DHT22;9581;49.484;8.556;2022-12-08T00:45:38;4.90;99.90
18898;DHT22;9581;49.484;8.556;2022-12-08T00:48:06;4.90;99.90
18898;DHT22;9581;49.484;8.556;2022-12-08T00:50:32;4.90;99.90
18898;DHT22;9581;49.484;8.556;2022-12-08T00:52:59;4.90;99.90
18898;DHT22;9581;49.484;8.556;2022-12-08T00:55:26;4.90;99.90
18898;DHT22;9581;49.484;8.556;2022-12-08T00:57:54;4.90;99.90
18898;DHT22;9581;49.484;8.556;2022-12-08T01:00:21;4.80;99.90
18898;DHT22;9581;49.484;8.556;2022-12-08T01:02:48;4.80;99.90
18898;DHT22;9581;49.484;8.556;2022-12-08T01:05:14;4.80;99.90
18898;DHT22;9581;49.484;8.556;2022-12-08T01:07:41;4.80;99.90
18898;DHT22;9581;49.484;8.556;2022-12-08T01:10:08;4.80;99.90
18898;DHT22;9581;49.484;8.556;2022-12-08T01:12:35;4.80;99.90
18898;DHT22;9581;49.484;8.556;2022-12-08T01:15:04;4.80;99.90
18898;DHT22;9581;49.484;8.556;2022-12-08T01:17:30;4.80;99.90
18898;DHT22;9581;49.484;8.556;2022-12-08T01:19:57;4.80;99.90
18898;DHT22;9581;49.484;8.556;2022-12-08T01:22:24;4.70;99.90
18898;DHT22;9581;49.484;8.556;2022-12-08T01:24:51;4.70;99.90
18898;DHT22;9581;49.484;8.556;2022-12-08T01:27:18;4.60;99.90
18898;DHT22;9581;49.484;8.556;2022-12-08T01:29:44;4.70;99.90
18898;DHT22;9581;49.484;8.556;2022-12-08T01:32:13;4.70;99.90
18898;DHT22;9581;49.484;8.556;2022-12-08T01:34:39;4.60;99.90
18898;DHT22;9581;49.484;8.556;2022-12-08T01:37:06;4.60;99.90
18898;DHT22;9581;49.484;8.556;2022-12-08T01:39:34;4.50;99.90
18898;DHT22;9581;49.484;8.556;2022-12-08T01:42:00;4.50;99.90
18898;DHT22;9581;49.484;8.556;2022-12-08T01:44:56;4.50;99.90
18898;DHT22;9581;49.484;8.556;2022-12-08T01:47:29;4.50;99.90
18898;DHT22;9581;49.484;8.556;2022-12-08T01:49:57;4.50;99.90
18898;DHT22;9581;49.484;8.556;2022-12-08T01:52:28;4.50;99.90
18898;DHT22;9581;49.484;8.556;2022-12-08T01:55:01;4.50;99.90
18898;DHT22;9581;49.484;8.556;2022-12-08T01:57:30;4.50;99.90
18898;DHT22;9581;49.484;8.556;2022-12-08T02:00:03;4.50;99.90
18898;DHT22;9581;49.484;8.556;2022-12-08T02:02:35;4.50;99.90
18898;DHT22;9581;49.484;8.556;2022-12-08T02:05:05;4.40;99.90
18898;DHT22;9581;49.484;8.556;2022-12-08T02:07:32;4.50;99.90
18898;DHT22;9581;49.484;8.556;2022-12-08T02:10:01;4.50;99.90
18898;DHT22;9581;49.484;8.556;2022-12-08T02:12:28;4.50;99.90
18898;DHT22;9581;49.484;8.556;2022-12-08T02:14:55;4.50;99.90
18898;DHT22;9581;49.484;8.556;2022-12-08T02:17:34;4.50;99.90
18898;DHT22;9581;49.484;8.556;2022-12-08T02:20:35;4.50;99.90
18898;DHT22;9581;49.484;8.556;2022-12-08T02:23:09;4.40;99.90
18898;DHT22;9581;49.484;8.556;2022-12-08T02:25:54;4.40;99.90
18898;DHT22;9581;49.484;8.556;2022-12-08T02:28:41;4.40;99.90
18898;DHT22;9581;49.484;8.556;2022-12-08T02:31:21;4.30;99.90
18898;DHT22;9581;49.484;8.556;2022-12-08T02:34:10;4.30;99.90
18898;DHT22;9581;49.484;8.556;2022-12-08T02:36:45;4.40;99.90
18898;DHT22;9581;49.484;8.556;2022-12-08T02:39:26;4.30;99.90
18898;DHT22;9581;49.484;8.556;2022-12-08T02:42:00;4.30;99.90
18898;DHT22;9581;49.484;8.556;2022-12-08T02:44:30;4.30;99.90
18898;DHT22;9581;49.484;8.556;2022-12-08T02:47:03;4.20;99.90
18898;DHT22;9581;49.484;8.556;2022-12-08T02:49:34;4.30;99.90
18898;DHT22;9581;49.484;8.556;2022-12-08T02:52:05;4.30;99.90
18898;DHT22;9581;49.484;8.556;2022-12-08T02:54:33;4.30;99.90
18898;DHT22;9581;49.484;8.556;2022-12-08T02:57:15;4.20;99.90
18898;DHT22;9581;49.484;8.556;2022-12-08T02:59:56;4.20;99.90
18898;DHT22;9581;49.484;8.556;2022-12-08T03:02:40;4.20;99.90
18898;DHT22;9581;49.484;8.556;2022-12-08T03:05:17;4.30;99.90
18898;DHT22;9581;49.484;8.556;2022-12-08T03:07:52;4.30;99.90
18898;DHT22;9581;49.484;8.556;2022-12-08T03:10:26;4.30;99.90
18898;DHT22;9581;49.484;8.556;2022-12-08T03:12:59;4.30;99.90
18898;DHT22;9581;49.484;8.556;2022-12-08T03:15:26;4.30;99.90
18898;DHT22;9581;49.484;8.556;2022-12-08T03:17:57;4.30;99.90
18898;DHT22;9581;49.484;8.556;2022-12-08T03:20:27;4.20;99.90
18898;DHT22;9581;49.484;8.556;2022-12-08T03:22:57;4.20;99.90
18898;DHT22;9581;49.484;8.556;2022-12-08T03:25:28;4.30;99.90
18898;DHT22;9581;49.484;8.556;2022-12-08T03:27:56;4.30;99.90
18898;DHT22;9581;49.484;8.556;2022-12-08T03:30:25;4.20;99.90
18898;DHT22;9581;49.484;8.556;2022-12-08T03:32:57;4.20;99.90
18898;DHT22;9581;49.484;8.556;2022-12-08T03:35:30;4.20;99.90
18898;DHT22;9581;49.484;8.556;2022-12-08T03:38:02;4.20;99.90
18898;DHT22;9581;49.484;8.556;2022-12-08T03:40:29;4.00;99.90
18898;DHT22;9581;49.484;8.556;2022-12-08T03:42:55;4.20;99.90
18898;DHT22;9581;49.484;8.556;2022-12-08T03:45:22;4.10;99.90
18898;DHT22;9581;49.484;8.556;2022-12-08T03:47:49;4.00;99.90
18898;DHT22;9581;49.484;8.556;2022-12-08T03:50:16;4.10;99.90
18898;DHT22;9581;49.484;8.556;2022-12-08T03:52:44;4.10;99.90
18898;DHT22;9581;49.484;8.556;2022-12-08T03:55:10;4.10;99.90
18898;DHT22;9581;49.484;8.556;2022-12-08T03:57:38;4.00;99.90
18898;DHT22;9581;49.484;8.556;2022-12-08T04:00:06;4.00;99.90
18898;DHT22;9581;49.484;8.556;2022-12-08T04:02:33;4.10;99.90
18898;DHT22;9581;49.484;8.556;2022-12-08T04:05:00;4.00;99.90
18898;DHT22;9581;49.484;8.556;2022-12-08T04:07:27;3.90;99.90
18898;DHT22;9581;49.484;8.556;2022-12-08T04:09:55;4.00;99.90
18898;DHT22;9581;49.484;8.556;2022-12-08T04:12:22;3.90;99.90
18898;DHT22;9581;49.484;8.556;2022-12-08T04:14:48;3.90;99.90
18898;DHT22;9581;49.484;8.556;2022-12-08T04:17:15;3.90;99.90
18898;DHT22;9581;49.484;8.556;2022-12-08T04:19:42;3.90;99.90
18898;DHT22;9581;49.484;8.556;2022-12-08T04:22:08;3.80;99.90
18898;DHT22;9581;49.484;8.556;2022-12-08T04:24:35;3.90;99.90
18898;DHT22;9581;49.484;8.556;2022-12-08T04:27:03;3.90;99.90
18898;DHT22;9581;49.484;8.556;2022-12-08T04:29:30;3.90;99.90
18898;DHT22;9581;49.484;8.556;2022-12-08T04:31:57;3.90;99.90
18898;DHT22;9581;49.484;8.556;2022-12-08T04:34:23;3.80;99.90
18898;DHT22;9581;49.484;8.556;2022-12-08T04:36:50;3.90;99.90
18898;DHT22;9581;49.484;8.556;2022-12-08T04:39:17;3.90;99.90
18898;DHT22;9581;49.484;8.556;2022-12-08T04:41:44;3.90;99.90
18898;DHT22;9581;49.484;8.556;2022-12-08T04:44:12;3.90;99.90
18898;DHT22;9581;49.484;8.556;2022-12-08T04:46:38;3.90;99.90
18898;DHT22;9581;49.484;8.556;2022-12-08T04:49:05;3.80;99.90
18898;DHT22;9581;49.484;8.556;2022-12-08T04:51:32;3.80;99.90
18898;DHT22;9581;49.484;8.556;2022-12-08T04:53:59;3.90;99.90
18898;DHT22;9581;49.484;8.556;2022-12-08T04:56:26;3.80;99.90
18898;DHT22;9581;49.484;8.556;2022-12-08T04:58:52;3.80;99.90
18898;DHT22;9581;49.484;8.556;2022-12-08T05:01:21;3.70;99.90
18898;DHT22;9581;49.484;8.556;2022-12-08T05:03:47;3.70;99.90
18898;DHT22;9581;49.484;8.556;2022-12-08T05:06:14;3.70;99.90
18898;DHT22;9581;49.484;8.556;2022-12-08T05:08:41;3.80;99.90
18898;DHT22;9581;49.484;8.556;2022-12-08T05:11:10;3.80;99.90
18898;DHT22;9581;49.484;8.556;2022-12-08T05:13:37;3.80;99.90
18898;DHT22;9581;49.484;8.556;2022-12-08T05:16:05;3.80;99.90
18898;DHT22;9581;49.484;8.556;2022-12-08T05:18:34;3.80;99.90
18898;DHT22;9581;49.484;8.556;2022-12-08T05:21:02;3.90;99.90
18898;DHT22;9581;49.484;8.556;2022-12-08T05:23:29;3.90;99.90
18898;DHT22;9581;49.484;8.556;2022-12-08T05:25:56;3.80;99.90
18898;DHT22;9581;49.484;8.556;2022-12-08T05:28:23;3.80;99.90
18898;DHT22;9581;49.484;8.556;2022-12-08T05:30:50;3.80;99.90
18898;DHT22;9581;49.484;8.556;2022-12-08T05:33:17;3.80;99.90
18898;DHT22;9581;49.484;8.556;2022-12-08T05:35:45;3.80;99.90
18898;DHT22;9581;49.484;8.556;2022-12-08T05:38:12;3.80;99.90
18898;DHT22;9581;49.484;8.556;2022-12-08T05:40:40;3.90;99.90
18898;DHT22;9581;49.484;8.556;2022-12-08T05:43:09;3.80;99.90
18898;DHT22;9581;49.484;8.556;2022-12-08T05:45:36;3.80;99.90
18898;DHT22;9581;49.484;8.556;2022-12-08T05:48:03;3.90;99.90
18898;DHT22;9581;49.484;8.556;2022-12-08T05:50:30;3.80;99.90
18898;DHT22;9581;49.484;8.556;2022-12-08T05:52:58;3.80;99.90
18898;DHT22;9581;49.484;8.556;2022-12-08T05:55:25;3.70;99.90
18898;DHT22;9581;49.484;8.556;2022-12-08T05:57:51;3.70;99.90
18898;DHT22;9581;49.484;8.556;2022-12-08T06:00:20;3.70;99.90
18898;DHT22;9581;49.484;8.556;2022-12-08T06:02:46;3.70;99.90
18898;DHT22;9581;49.484;8.556;2022-12-08T06:05:13;3.70;99.90
18898;DHT22;9581;49.484;8.556;2022-12-08T06:07:40;3.70;99.90
18898;DHT22;9581;49.484;8.556;2022-12-08T06:10:09;3.80;99.90
18898;DHT22;9581;49.484;8.556;2022-12-08T06:12:36;3.90;99.90
18898;DHT22;9581;49.484;8.556;2022-12-08T06:15:03;3.70;99.90
18898;DHT22;9581;49.484;8.556;2022-12-08T06:17:30;3.80;99.90
18898;DHT22;9581;49.484;8.556;2022-12-08T06:19:56;3.80;99.90
18898;DHT22;9581;49.484;8.556;2022-12-08T06:22:23;3.80;99.90
18898;DHT22;9581;49.484;8.556;2022-12-08T06:24:50;3.80;99.90
18898;DHT22;9581;49.484;8.556;2022-12-08T06:27:18;3.90;99.90
18898;DHT22;9581;49.484;8.556;2022-12-08T06:29:45;3.90;99.90
18898;DHT22;9581;49.484;8.556;2022-12-08T06:32:12;3.90;99.90
18898;DHT22;9581;49.484;8.556;2022-12-08T06:34:38;3.90;99.90
18898;DHT22;9581;49.484;8.556;2022-12-08T06:37:05;3.90;99.90
18898;DHT22;9581;49.484;8.556;2022-12-08T06:39:32;3.90;99.90
18898;DHT22;9581;49.484;8.556;2022-12-08T06:41:59;4.00;99.90
18898;DHT22;9581;49.484;8.556;2022-12-08T06:44:45;4.00;99.90
18898;DHT22;9581;49.484;8.556;2022-12-08T06:47:12;4.00;99.90
18898;DHT22;9581;49.484;8.556;2022-12-08T06:49:39;4.00;99.90
18898;DHT22;9581;49.484;8.556;2022-12-08T06:52:05;4.00;99.90
18898;DHT22;9581;49.484;8.556;2022-12-08T06:54:32;4.00;99.90
18898;DHT22;9581;49.484;8.556;2022-12-08T06:56:59;4.00;99.90
18898;DHT22;9581;49.484;8.556;2022-12-08T06:59:26;4.00;99.90
18898;DHT22;9581;49.484;8.556;2022-12-08T07:01:54;4.10;99.90
18898;DHT22;9581;49.484;8.556;2022-12-08T07:04:21;4.00;99.90
18898;DHT22;9581;49.484;8.556;2022-12-08T07:06:48;4.00;99.90
18898;DHT22;9581;49.484;8.556;2022-12-08T07:09:15;4.00;99.90
18898;DHT22;9581;49.484;8.556;2022-12-08T07:11:42;4.00;99.90
18898;DHT22;9581;49.484;8.556;2022-12-08T07:14:09;4.00;99.90
18898;DHT22;9581;49.484;8.556;2022-12-08T07:16:36;4.00;99.90
18898;DHT22;9581;49.484;8.556;2022-12-08T07:19:05;4.10;99.90
18898;DHT22;9581;49.484;8.556;2022-12-08T07:21:31;4.00;99.90
18898;DHT22;9581;49.484;8.556;2022-12-08T07:23:58;4.00;99.90
18898;DHT22;9581;49.484;8.556;2022-12-08T07:26:25;4.00;99.90
18898;DHT22;9581;49.484;8.556;2022-12-08T07:28:52;4.00;99.90
18898;DHT22;9581;49.484;8.556;2022-12-08T07:31:20;4.00;99.90
18898;DHT22;9581;49.484;8.556;2022-12-08T07:33:48;4.10;99.90
18898;DHT22;9581;49.484;8.556;2022-12-08T07:36:17;4.10;99.90
18898;DHT22;9581;49.484;8.556;2022-12-08T07:38:44;4.10;99.90
18898;DHT22;9581;49.484;8.556;2022-12-08T07:41:11;4.10;99.90
18898;DHT22;9581;49.484;8.556;2022-12-08T07:43:39;4.10;99.90
18898;DHT22;9581;49.484;8.556;2022-12-08T07:46:06;4.10;99.90
18898;DHT22;9581;49.484;8.556;2022-12-08T07:48:32;4.10;99.90
18898;DHT22;9581;49.484;8.556;2022-12-08T07:51:00;4.10;99.90
18898;DHT22;9581;49.484;8.556;2022-12-08T07:53:28;4.10;99.90
18898;DHT22;9581;49.484;8.556;2022-12-08T07:55:55;4.10;99.90
18898;DHT22;9581;49.484;8.556;2022-12-08T07:58:22;4.10;99.90
18898;DHT22;9581;49.484;8.556;2022-12-08T08:00:50;4.20;99.90
18898;DHT22;9581;49.484;8.556;2022-12-08T08:03:16;4.20;99.90
18898;DHT22;9581;49.484;8.556;2022-12-08T08:05:43;4.20;99.90
18898;DHT22;9581;49.484;8.556;2022-12-08T08:08:12;4.30;99.90
18898;DHT22;9581;49.484;8.556;2022-12-08T08:10:41;4.30;99.90
18898;DHT22;9581;49.484;8.556;2022-12-08T08:13:08;4.30;99.90
18898;DHT22;9581;49.484;8.556;2022-12-08T08:15:35;4.20;99.90
18898;DHT22;9581;49.484;8.556;2022-12-08T08:18:02;4.30;99.90
18898;DHT22;9581;49.484;8.556;2022-12-08T08:20:29;4.40;99.90
18898;DHT22;9581;49.484;8.556;2022-12-08T08:22:56;4.50;99.90
18898;DHT22;9581;49.484;8.556;2022-12-08T08:25:23;4.60;99.90
18898;DHT22;9581;49.484;8.556;2022-12-08T08:27:51;4.60;99.90
18898;DHT22;9581;49.484;8.556;2022-12-08T08:30:18;4.60;99.90
18898;DHT22;9581;49.484;8.556;2022-12-08T08:32:45;4.60;99.90
18898;DHT22;9581;49.484;8.556;2022-12-08T08:35:12;4.60;99.90
18898;DHT22;9581;49.484;8.556;2022-12-08T08:37:38;4.60;99.90
18898;DHT22;9581;49.484;8.556;2022-12-08T08:40:06;4.60;99.90
18898;DHT22;9581;49.484;8.556;2022-12-08T08:42:33;4.60;99.90
18898;DHT22;9581;49.484;8.556;2022-12-08T08:45:01;4.60;99.90
18898;DHT22;9581;49.484;8.556;2022-12-08T08:47:28;4.70;99.90
18898;DHT22;9581;49.484;8.556;2022-12-08T08:49:55;4.70;99.90
18898;DHT22;9581;49.484;8.556;2022-12-08T08:52:21;4.40;99.90
18898;DHT22;9581;49.484;8.556;2022-12-08T08:54:48;4.50;99.90
18898;DHT22;9581;49.484;8.556;2022-12-08T08:57:15;4.60;99.90
18898;DHT22;9581;49.484;8.556;2022-12-08T08:59:42;4.60;99.90
18898;DHT22;9581;49.484;8.556;2022-12-08T09:02:15;4.60;99.90
18898;DHT22;9581;49.484;8.556;2022-12-08T09:04:43;4.60;99.90
18898;DHT22;9581;49.484;8.556;2022-12-08T09:07:10;4.60;99.90
18898;DHT22;9581;49.484;8.556;2022-12-08T09:09:37;4.60;99.90
18898;DHT22;9581;49.484;8.556;2022-12-08T09:12:05;4.60;99.90
18898;DHT22;9581;49.484;8.556;2022-12-08T09:14:32;4.70;99.90
18898;DHT22;9581;49.484;8.556;2022-12-08T09:16:59;4.70;99.90
18898;DHT22;9581;49.484;8.556;2022-12-08T09:19:27;4.70;99.90
18898;DHT22;9581;49.484;8.556;2022-12-08T09:21:54;4.80;99.90
18898;DHT22;9581;49.484;8.556;2022-12-08T09:24:20;4.80;99.90
18898;DHT22;9581;49.484;8.556;2022-12-08T09:26:47;4.90;99.90
18898;DHT22;9581;49.484;8.556;2022-12-08T09:29:14;4.90;99.90
18898;DHT22;9581;49.484;8.556;2022-12-08T09:31:42;5.00;99.90
18898;DHT22;9581;49.484;8.556;2022-12-08T09:34:09;4.90;99.90
18898;DHT22;9581;49.484;8.556;2022-12-08T09:36:38;4.90;99.90
18898;DHT22;9581;49.484;8.556;2022-12-08T09:39:04;5.00;99.90
18898;DHT22;9581;49.484;8.556;2022-12-08T09:41:34;5.00;99.90
18898;DHT22;9581;49.484;8.556;2022-12-08T09:44:07;5.00;99.90
18898;DHT22;9581;49.484;8.556;2022-12-08T09:46:39;5.10;99.90
18898;DHT22;9581;49.484;8.556;2022-12-08T09:49:11;5.20;99.90
18898;DHT22;9581;49.484;8.556;2022-12-08T09:51:43;5.30;99.90
18898;DHT22;9581;49.484;8.556;2022-12-08T09:54:16;5.40;99.90
18898;DHT22;9581;49.484;8.556;2022-12-08T09:56:44;5.50;99.90
18898;DHT22;9581;49.484;8.556;2022-12-08T09:59:21;5.60;99.90
18898;DHT22;9581;49.484;8.556;2022-12-08T10:01:48;5.50;99.90
18898;DHT22;9581;49.484;8.556;2022-12-08T10:04:21;5.60;99.90
18898;DHT22;9581;49.484;8.556;2022-12-08T10:06:58;6.00;99.90
18898;DHT22;9581;49.484;8.556;2022-12-08T10:09:35;6.50;99.90
18898;DHT22;9581;49.484;8.556;2022-12-08T10:12:11;5.80;99.90
18898;DHT22;9581;49.484;8.556;2022-12-08T10:14:42;5.70;99.90
18898;DHT22;9581;49.484;8.556;2022-12-08T10:17:16;6.00;99.90
18898;DHT22;9581;49.484;8.556;2022-12-08T10:19:45;6.20;99.90
18898;DHT22;9581;49.484;8.556;2022-12-08T10:22:20;6.30;99.90
18898;DHT22;9581;49.484;8.556;2022-12-08T10:24:53;6.00;99.90
18898;DHT22;9581;49.484;8.556;2022-12-08T10:27:24;6.00;99.90
18898;DHT22;9581;49.484;8.556;2022-12-08T10:29:50;5.70;99.90
18898;DHT22;9581;49.484;8.556;2022-12-08T10:32:19;5.60;99.90
18898;DHT22;9581;49.484;8.556;2022-12-08T10:35:02;5.60;99.90
18898;DHT22;9581;49.484;8.556;2022-12-08T10:37:31;6.00;99.90
18898;DHT22;9581;49.484;8.556;2022-12-08T10:39:59;5.80;99.90
18898;DHT22;9581;49.484;8.556;2022-12-08T10:42:33;6.00;99.90
18898;DHT22;9581;49.484;8.556;2022-12-08T10:45:12;5.50;99.90
18898;DHT22;9581;49.484;8.556;2022-12-08T10:47:48;5.60;99.90
18898;DHT22;9581;49.484;8.556;2022-12-08T10:50:30;5.90;99.90
18898;DHT22;9581;49.484;8.556;2022-12-08T10:53:00;6.00;99.90
18898;DHT22;9581;49.484;8.556;2022-12-08T10:55:28;6.10;99.90
18898;DHT22;9581;49.484;8.556;2022-12-08T10:58:04;6.10;99.90
18898;DHT22;9581;49.484;8.556;2022-12-08T11:00:31;5.90;99.90
18898;DHT22;9581;49.484;8.556;2022-12-08T11:02:59;6.20;99.90
18898;DHT22;9581;49.484;8.556;2022-12-08T11:05:30;6.40;99.90
18898;DHT22;9581;49.484;8.556;2022-12-08T11:07:59;5.90;99.90
18898;DHT22;9581;49.484;8.556;2022-12-08T11:10:31;6.20;99.90
18898;DHT22;9581;49.484;8.556;2022-12-08T11:13:00;6.20;99.90
18898;DHT22;9581;49.484;8.556;2022-12-08T11:15:33;6.30;99.90
18898;DHT22;9581;49.484;8.556;2022-12-08T11:18:07;6.30;99.90
18898;DHT22;9581;49.484;8.556;2022-12-08T11:20:38;6.50;99.90
18898;DHT22;9581;49.484;8.556;2022-12-08T11:23:18;6.50;99.90
18898;DHT22;9581;49.484;8.556;2022-12-08T11:25:46;6.20;99.90
18898;DHT22;9581;49.484;8.556;2022-12-08T11:28:13;6.30;99.90
18898;DHT22;9581;49.484;8.556;2022-12-08T11:30:43;6.40;99.90
18898;DHT22;9581;49.484;8.556;2022-12-08T11:33:16;6.20;99.90
18898;DHT22;9581;49.484;8.556;2022-12-08T11:35:45;6.30;99.90
18898;DHT22;9581;49.484;8.556;2022-12-08T11:38:16;6.10;99.90
18898;DHT22;9581;49.484;8.556;2022-12-08T11:40:47;5.90;99.90
18898;DHT22;9581;49.484;8.556;2022-12-08T11:43:19;6.10;99.90
18898;DHT22;9581;49.484;8.556;2022-12-08T11:45:49;5.90;99.90
18898;DHT22;9581;49.484;8.556;2022-12-08T11:48:24;5.70;99.90
18898;DHT22;9581;49.484;8.556;2022-12-08T11:50:55;5.70;99.90
18898;DHT22;9581;49.484;8.556;2022-12-08T11:53:28;5.50;99.90
18898;DHT22;9581;49.484;8.556;2022-12-08T11:55:59;5.80;99.90
18898;DHT22;9581;49.484;8.556;2022-12-08T11:58:35;5.80;99.90
18898;DHT22;9581;49.484;8.556;2022-12-08T12:01:04;5.70;99.90
18898;DHT22;9581;49.484;8.556;2022-12-08T12:03:36;5.50;99.90
18898;DHT22;9581;49.484;8.556;2022-12-08T12:06:27;5.80;99.90
18898;DHT22;9581;49.484;8.556;2022-12-08T12:09:08;5.80;99.90
18898;DHT22;9581;49.484;8.556;2022-12-08T12:11:42;6.10;99.90
18898;DHT22;9581;49.484;8.556;2022-12-08T12:14:43;6.20;99.90
18898;DHT22;9581;49.484;8.556;2022-12-08T12:17:25;6.30;99.90
18898;DHT22;9581;49.484;8.556;2022-12-08T12:19:59;5.80;99.90
18898;DHT22;9581;49.484;8.556;2022-12-08T12:22:33;6.10;99.90
18898;DHT22;9581;49.484;8.556;2022-12-08T12:25:02;6.30;99.90
18898;DHT22;9581;49.484;8.556;2022-12-08T12:27:34;6.30;99.90
18898;DHT22;9581;49.484;8.556;2022-12-08T12:30:06;6.30;99.90
18898;DHT22;9581;49.484;8.556;2022-12-08T12:32:42;6.30;99.90
18898;DHT22;9581;49.484;8.556;2022-12-08T12:35:15;6.10;99.90
18898;DHT22;9581;49.484;8.556;2022-12-08T12:37:47;6.30;99.90
18898;DHT22;9581;49.484;8.556;2022-12-08T12:40:18;6.00;99.90
18898;DHT22;9581;49.484;8.556;2022-12-08T12:42:47;6.00;99.90
18898;DHT22;9581;49.484;8.556;2022-12-08T12:45:35;6.00;99.90
18898;DHT22;9581;49.484;8.556;2022-12-08T12:48:21;6.20;99.90
18898;DHT22;9581;49.484;8.556;2022-12-08T12:50:49;6.20;99.90
18898;DHT22;9581;49.484;8.556;2022-12-08T12:53:47;6.30;99.90
18898;DHT22;9581;49.484;8.556;2022-12-08T12:56:47;6.50;99.90
18898;DHT22;9581;49.484;8.556;2022-12-08T12:59:40;6.40;99.90
18898;DHT22;9581;49.484;8.556;2022-12-08T13:02:20;6.40;99.90
18898;DHT22;9581;49.484;8.556;2022-12-08T13:04:55;6.40;99.90
18898;DHT22;9581;49.484;8.556;2022-12-08T13:07:25;5.80;99.90
18898;DHT22;9581;49.484;8.556;2022-12-08T13:09:57;6.30;99.90
18898;DHT22;9581;49.484;8.556;2022-12-08T13:12:26;6.70;99.90
18898;DHT22;9581;49.484;8.556;2022-12-08T13:14:59;6.80;99.90
18898;DHT22;9581;49.484;8.556;2022-12-08T13:17:30;6.50;99.90
18898;DHT22;9581;49.484;8.556;2022-12-08T13:19:59;6.50;99.90
18898;DHT22;9581;49.484;8.556;2022-12-08T13:22:48;6.70;99.90
18898;DHT22;9581;49.484;8.556;2022-12-08T13:25:46;6.90;99.90
18898;DHT22;9581;49.484;8.556;2022-12-08T13:28:24;6.50;99.90
18898;DHT22;9581;49.484;8.556;2022-12-08T13:30:52;6.60;99.90
18898;DHT22;9581;49.484;8.556;2022-12-08T13:33:31;6.70;99.90
18898;DHT22;9581;49.484;8.556;2022-12-08T13:36:09;6.80;99.90
18898;DHT22;9581;49.484;8.556;2022-12-08T13:38:37;6.50;99.90
18898;DHT22;9581;49.484;8.556;2022-12-08T13:41:11;6.40;99.90
18898;DHT22;9581;49.484;8.556;2022-12-08T13:43:44;6.50;99.90
18898;DHT22;9581;49.484;8.556;2022-12-08T13:46:14;6.50;99.90
18898;DHT22;9581;49.484;8.556;2022-12-08T13:48:47;6.50;99.90
18898;DHT22;9581;49.484;8.556;2022-12-08T13:51:18;6.40;99.90
18898;DHT22;9581;49.484;8.556;2022-12-08T13:53:56;6.20;99.90
18898;DHT22;9581;49.484;8.556;2022-12-08T13:56:25;6.30;99.90
18898;DHT22;9581;49.484;8.556;2022-12-08T13:59:06;6.00;99.90
18898;DHT22;9581;49.484;8.556;2022-12-08T14:01:40;6.00;99.90
18898;DHT22;9581;49.484;8.556;2022-12-08T14:04:13;6.00;99.90
18898;DHT22;9581;49.484;8.556;2022-12-08T14:06:42;6.20;99.90
18898;DHT22;9581;49.484;8.556;2022-12-08T14:09:13;6.10;99.90
18898;DHT22;9581;49.484;8.556;2022-12-08T14:11:42;6.00;99.90
18898;DHT22;9581;49.484;8.556;2022-12-08T14:14:16;6.00;99.90
18898;DHT22;9581;49.484;8.556;2022-12-08T14:16:48;5.90;99.90
18898;DHT22;9581;49.484;8.556;2022-12-08T14:19:17;5.70;99.90
18898;DHT22;9581;49.484;8.556;2022-12-08T14:21:47;5.90;99.90
18898;DHT22;9581;49.484;8.556;2022-12-08T14:24:16;5.50;99.90
18898;DHT22;9581;49.484;8.556;2022-12-08T14:26:44;5.70;99.90
18898;DHT22;9581;49.484;8.556;2022-12-08T14:29:35;5.70;99.90
18898;DHT22;9581;49.484;8.556;2022-12-08T14:32:03;5.90;99.90
18898;DHT22;9581;49.484;8.556;2022-12-08T14:34:34;5.90;99.90
18898;DHT22;9581;49.484;8.556;2022-12-08T14:37:07;5.90;99.90
18898;DHT22;9581;49.484;8.556;2022-12-08T14:39:36;5.60;99.90
18898;DHT22;9581;49.484;8.556;2022-12-08T14:42:04;5.50;99.90
18898;DHT22;9581;49.484;8.556;2022-12-08T14:44:37;5.70;99.90
18898;DHT22;9581;49.484;8.556;2022-12-08T14:47:06;5.60;99.90
18898;DHT22;9581;49.484;8.556;2022-12-08T14:49:34;5.60;99.90
18898;DHT22;9581;49.484;8.556;2022-12-08T14:52:02;5.80;99.90
18898;DHT22;9581;49.484;8.556;2022-12-08T14:54:34;5.90;99.90
18898;DHT22;9581;49.484;8.556;2022-12-08T14:57:02;5.90;99.90
18898;DHT22;9581;49.484;8.556;2022-12-08T14:59:30;5.80;99.90
18898;DHT22;9581;49.484;8.556;2022-12-08T15:02:18;5.90;99.90
18898;DHT22;9581;49.484;8.556;2022-12-08T15:04:52;5.90;99.90
18898;DHT22;9581;49.484;8.556;2022-12-08T15:07:21;5.90;99.90
18898;DHT22;9581;49.484;8.556;2022-12-08T15:10:06;5.90;99.90
18898;DHT22;9581;49.484;8.556;2022-12-08T15:12:33;5.80;99.90
18898;DHT22;9581;49.484;8.556;2022-12-08T15:15:12;5.80;99.90
18898;DHT22;9581;49.484;8.556;2022-12-08T15:17:42;5.70;99.90
18898;DHT22;9581;49.484;8.556;2022-12-08T15:20:25;5.70;99.90
18898;DHT22;9581;49.484;8.556;2022-12-08T15:22:53;5.70;99.90
18898;DHT22;9581;49.484;8.556;2022-12-08T15:25:20;5.80;99.90
18898;DHT22;9581;49.484;8.556;2022-12-08T15:27:47;5.70;99.90
18898;DHT22;9581;49.484;8.556;2022-12-08T15:30:15;5.70;99.90
18898;DHT22;9581;49.484;8.556;2022-12-08T15:32:44;5.60;99.90
18898;DHT22;9581;49.484;8.556;2022-12-08T15:35:11;5.60;99.90
18898;DHT22;9581;49.484;8.556;2022-12-08T15:37:38;5.60;99.90
18898;DHT22;9581;49.484;8.556;2022-12-08T15:40:09;5.60;99.90
18898;DHT22;9581;49.484;8.556;2022-12-08T15:42:40;5.60;99.90
18898;DHT22;9581;49.484;8.556;2022-12-08T15:45:11;5.60;99.90
18898;DHT22;9581;49.484;8.556;2022-12-08T15:47:39;5.60;99.90
18898;DHT22;9581;49.484;8.556;2022-12-08T15:50:13;5.60;99.90
18898;DHT22;9581;49.484;8.556;2022-12-08T15:52:40;5.60;99.90
18898;DHT22;9581;49.484;8.556;2022-12-08T15:55:11;5.50;99.90
18898;DHT22;9581;49.484;8.556;2022-12-08T15:57:37;5.50;99.90
18898;DHT22;9581;49.484;8.556;2022-12-08T16:00:05;5.50;99.90
18898;DHT22;9581;49.484;8.556;2022-12-08T16:02:32;5.50;99.90
18898;DHT22;9581;49.484;8.556;2022-12-08T16:04:59;5.50;99.90
18898;DHT22;9581;49.484;8.556;2022-12-08T16:07:28;5.50;99.90
18898;DHT22;9581;49.484;8.556;2022-12-08T16:09:55;5.40;99.90
18898;DHT22;9581;49.484;8.556;2022-12-08T16:12:24;5.40;99.90
18898;DHT22;9581;49.484;8.556;2022-12-08T16:15:09;5.50;99.90
18898;DHT22;9581;49.484;8.556;2022-12-08T16:17:37;5.50;99.90
18898;DHT22;9581;49.484;8.556;2022-12-08T16:20:10;5.50;99.90
18898;DHT22;9581;49.484;8.556;2022-12-08T16:22:40;5.50;99.90